sensor_id;sensor_type;location;lat;lon;timestamp;temperature;humidity
27900;DHT22;15243;50.726;7.080;2022-12-11T00:00:23;-0.30;99.90
27900;DHT22;15243;50.726;7.080;2022-12-11T00:02:49;-0.20;99.90
27900;DHT22;15243;50.726;7.080;2022-12-11T00:05:16;-0.20;99.90
27900;DHT22;15243;50.726;7.080;2022-12-11T00:07:43;-0.30;99.90
27900;DHT22;15243;50.726;7.080;2022-12-11T00:10:10;-0.20;99.90
27900;DHT22;15243;50.726;7.080;2022-12-11T00:12:37;-0.20;99.90
27900;DHT22;15243;50.726;7.080;2022-12-11T00:15:04;-0.20;99.90
27900;DHT22;15243;50.726;7.080;2022-12-11T00:17:31;-0.40;99.90
27900;DHT22;15243;50.726;7.080;2022-12-11T00:19:58;-0.40;99.90
27900;DHT22;15243;50.726;7.080;2022-12-11T00:22:24;-0.30;99.90
27900;DHT22;15243;50.726;7.080;2022-12-11T00:24:51;-0.40;99.90
27900;DHT22;15243;50.726;7.080;2022-12-11T00:27:18;-0.30;99.90
27900;DHT22;15243;50.726;7.080;2022-12-11T00:29:45;-0.30;99.90
27900;DHT22;15243;50.726;7.080;2022-12-11T00:32:11;-0.30;99.90
27900;DHT22;15243;50.726;7.080;2022-12-11T00:34:38;-0.20;99.90
27900;DHT22;15243;50.726;7.080;2022-12-11T00:37:05;-0.30;99.90
27900;DHT22;15243;50.726;7.080;2022-12-11T00:39:32;-0.20;99.90
27900;DHT22;15243;50.726;7.080;2022-12-11T00:41:59;0.00;99.90
27900;DHT22;15243;50.726;7.080;2022-12-11T00:44:25;0.00;99.90
27900;DHT22;15243;50.726;7.080;2022-12-11T00:46:52;-0.10;99.90
27900;DHT22;15243;50.726;7.080;2022-12-11T00:49:19;-0.20;99.90
27900;DHT22;15243;50.726;7.080;2022-12-11T00:51:46;-0.20;99.90
27900;DHT22;15243;50.726;7.080;2022-12-11T00:54:12;-0.20;99.90
27900;DHT22;15243;50.726;7.080;2022-12-11T00:56:39;-0.10;99.90
27900;DHT22;15243;50.726;7.080;2022-12-11T00:59:06;-0.10;99.90
27900;DHT22;15243;50.726;7.080;2022-12-11T01:01:33;0.00;99.90
27900;DHT22;15243;50.726;7.080;2022-12-11T01:04:00;0.00;99.90
27900;DHT22;15243;50.726;7.080;2022-12-11T01:06:27;-0.10;99.90
27900;DHT22;15243;50.726;7.080;2022-12-11T01:08:55;0.00;99.90
27900;DHT22;15243;50.726;7.080;2022-12-11T01:11:41;-0.10;99.90
27900;DHT22;15243;50.726;7.080;2022-12-11T01:14:10;0.10;99.90
27900;DHT22;15243;50.726;7.080;2022-12-11T01:16:37;0.10;99.90
27900;DHT22;15243;50.726;7.080;2022-12-11T01:19:04;0.00;99.90
27900;DHT22;15243;50.726;7.080;2022-12-11T01:21:31;0.10;99.90
27900;DHT22;15243;50.726;7.080;2022-12-11T01:23:57;0.10;99.90
27900;DHT22;15243;50.726;7.080;2022-12-11T01:26:24;0.00;99.90
27900;DHT22;15243;50.726;7.080;2022-12-11T01:28:51;0.10;99.90
27900;DHT22;15243;50.726;7.080;2022-12-11T01:31:20;0.10;99.90
27900;DHT22;15243;50.726;7.080;2022-12-11T01:33:48;0.00;99.90
27900;DHT22;15243;50.726;7.080;2022-12-11T01:36:20;0.00;99.90
27900;DHT22;15243;50.726;7.080;2022-12-11T01:38:48;0.10;99.90
27900;DHT22;15243;50.726;7.080;2022-12-11T01:41:16;0.10;99.90
27900;DHT22;15243;50.726;7.080;2022-12-11T01:43:56;0.20;99.90
27900;DHT22;15243;50.726;7.080;2022-12-11T01:46:24;0.20;99.90
27900;DHT22;15243;50.726;7.080;2022-12-11T01:48:51;0.20;99.90
27900;DHT22;15243;50.726;7.080;2022-12-11T01:51:19;0.20;99.90
27900;DHT22;15243;50.726;7.080;2022-12-11T01:53:51;0.20;99.90
27900;DHT22;15243;50.726;7.080;2022-12-11T01:56:19;0.20;99.90
27900;DHT22;15243;50.726;7.080;2022-12-11T01:58:49;0.20;99.90
27900;DHT22;15243;50.726;7.080;2022-12-11T02:01:31;0.40;99.90
27900;DHT22;15243;50.726;7.080;2022-12-11T02:04:00;0.20;99.90
27900;DHT22;15243;50.726;7.080;2022-12-11T02:06:41;0.30;99.90
27900;DHT22;15243;50.726;7.080;2022-12-11T02:09:11;0.20;99.90
27900;DHT22;15243;50.726;7.080;2022-12-11T02:14:42;0.20;99.90
27900;DHT22;15243;50.726;7.080;2022-12-11T02:17:20;0.10;99.90
27900;DHT22;15243;50.726;7.080;2022-12-11T02:25:46;0.30;99.90
27900;DHT22;15243;50.726;7.080;2022-12-11T02:28:40;0.20;99.90
27900;DHT22;15243;50.726;7.080;2022-12-11T02:31:18;0.20;99.90
27900;DHT22;15243;50.726;7.080;2022-12-11T02:33:57;0.20;99.90
27900;DHT22;15243;50.726;7.080;2022-12-11T02:36:28;0.20;99.90
27900;DHT22;15243;50.726;7.080;2022-12-11T02:38:58;0.10;99.90
27900;DHT22;15243;50.726;7.080;2022-12-11T02:41:28;0.20;99.90
27900;DHT22;15243;50.726;7.080;2022-12-11T02:43:56;0.30;99.90
27900;DHT22;15243;50.726;7.080;2022-12-11T02:46:24;0.30;99.90
27900;DHT22;15243;50.726;7.080;2022-12-11T02:48:52;0.30;99.90
27900;DHT22;15243;50.726;7.080;2022-12-11T02:51:25;0.40;99.90
27900;DHT22;15243;50.726;7.080;2022-12-11T02:53:55;0.20;99.90
27900;DHT22;15243;50.726;7.080;2022-12-11T02:56:29;0.30;99.90
27900;DHT22;15243;50.726;7.080;2022-12-11T02:59:13;0.50;99.90
27900;DHT22;15243;50.726;7.080;2022-12-11T03:01:41;0.40;99.90
27900;DHT22;15243;50.726;7.080;2022-12-11T03:04:09;0.30;99.90
27900;DHT22;15243;50.726;7.080;2022-12-11T03:06:41;0.40;99.90
27900;DHT22;15243;50.726;7.080;2022-12-11T03:09:10;0.50;99.90
27900;DHT22;15243;50.726;7.080;2022-12-11T03:11:37;0.30;99.90
27900;DHT22;15243;50.726;7.080;2022-12-11T03:14:04;0.20;99.90
27900;DHT22;15243;50.726;7.080;2022-12-11T03:16:37;0.30;99.90
27900;DHT22;15243;50.726;7.080;2022-12-11T03:22:09;0.50;99.90
27900;DHT22;15243;50.726;7.080;2022-12-11T03:24:45;0.50;99.90
27900;DHT22;15243;50.726;7.080;2022-12-11T03:27:33;0.50;99.90
27900;DHT22;15243;50.726;7.080;2022-12-11T03:30:09;0.30;99.90
27900;DHT22;15243;50.726;7.080;2022-12-11T03:32:47;0.30;99.90
27900;DHT22;15243;50.726;7.080;2022-12-11T03:35:20;0.40;99.90
27900;DHT22;15243;50.726;7.080;2022-12-11T03:37:48;0.20;99.90
27900;DHT22;15243;50.726;7.080;2022-12-11T03:40:18;0.50;99.90
27900;DHT22;15243;50.726;7.080;2022-12-11T03:42:49;0.40;99.90
27900;DHT22;15243;50.726;7.080;2022-12-11T03:45:19;0.40;99.90
27900;DHT22;15243;50.726;7.080;2022-12-11T03:47:46;0.40;99.90
27900;DHT22;15243;50.726;7.080;2022-12-11T03:50:15;0.30;99.90
27900;DHT22;15243;50.726;7.080;2022-12-11T03:52:45;0.40;99.90
27900;DHT22;15243;50.726;7.080;2022-12-11T03:55:15;0.40;99.90
27900;DHT22;15243;50.726;7.080;2022-12-11T03:57:42;0.30;99.90
27900;DHT22;15243;50.726;7.080;2022-12-11T04:00:12;0.50;99.90
27900;DHT22;15243;50.726;7.080;2022-12-11T04:02:40;0.50;99.90
27900;DHT22;15243;50.726;7.080;2022-12-11T04:05:09;0.50;99.90
27900;DHT22;15243;50.726;7.080;2022-12-11T04:07:36;0.40;99.90
27900;DHT22;15243;50.726;7.080;2022-12-11T04:10:04;0.30;99.90
27900;DHT22;15243;50.726;7.080;2022-12-11T04:12:31;0.40;99.90
27900;DHT22;15243;50.726;7.080;2022-12-11T04:14:58;0.50;99.90
27900;DHT22;15243;50.726;7.080;2022-12-11T04:17:29;0.60;99.90
27900;DHT22;15243;50.726;7.080;2022-12-11T04:20:15;0.30;99.90
27900;DHT22;15243;50.726;7.080;2022-12-11T04:23:03;0.30;99.90
27900;DHT22;15243;50.726;7.080;2022-12-11T04:25:49;0.30;99.90
27900;DHT22;15243;50.726;7.080;2022-12-11T04:28:16;0.40;99.90
27900;DHT22;15243;50.726;7.080;2022-12-11T04:30:48;0.30;99.90
27900;DHT22;15243;50.726;7.080;2022-12-11T04:33:15;0.40;99.90
27900;DHT22;15243;50.726;7.080;2022-12-11T04:35:42;0.40;99.90
27900;DHT22;15243;50.726;7.080;2022-12-11T04:38:09;0.60;99.90
27900;DHT22;15243;50.726;7.080;2022-12-11T04:40:36;0.60;99.90
27900;DHT22;15243;50.726;7.080;2022-12-11T04:43:03;0.50;99.90
27900;DHT22;15243;50.726;7.080;2022-12-11T04:45:30;0.40;99.90
27900;DHT22;15243;50.726;7.080;2022-12-11T04:47:57;0.30;99.90
27900;DHT22;15243;50.726;7.080;2022-12-11T04:50:25;0.50;99.90
27900;DHT22;15243;50.726;7.080;2022-12-11T04:52:55;0.40;99.90
27900;DHT22;15243;50.726;7.080;2022-12-11T04:55:23;0.40;99.90
27900;DHT22;15243;50.726;7.080;2022-12-11T04:57:51;0.40;99.90
27900;DHT22;15243;50.726;7.080;2022-12-11T05:00:18;0.40;99.90
27900;DHT22;15243;50.726;7.080;2022-12-11T05:02:45;0.30;99.90
27900;DHT22;15243;50.726;7.080;2022-12-11T05:05:12;0.40;99.90
27900;DHT22;15243;50.726;7.080;2022-12-11T05:07:40;0.40;99.90
27900;DHT22;15243;50.726;7.080;2022-12-11T05:10:08;0.40;99.90
27900;DHT22;15243;50.726;7.080;2022-12-11T05:12:35;0.40;99.90
27900;DHT22;15243;50.726;7.080;2022-12-11T05:15:02;0.30;99.90
27900;DHT22;15243;50.726;7.080;2022-12-11T05:17:29;0.30;99.90
27900;DHT22;15243;50.726;7.080;2022-12-11T05:19:56;0.40;99.90
27900;DHT22;15243;50.726;7.080;2022-12-11T05:22:23;0.40;99.90
27900;DHT22;15243;50.726;7.080;2022-12-11T05:24:50;0.40;99.90
27900;DHT22;15243;50.726;7.080;2022-12-11T05:27:16;0.40;99.90
27900;DHT22;15243;50.726;7.080;2022-12-11T05:29:43;0.40;99.90
27900;DHT22;15243;50.726;7.080;2022-12-11T05:32:10;0.30;99.90
27900;DHT22;15243;50.726;7.080;2022-12-11T05:34:37;0.30;99.90
27900;DHT22;15243;50.726;7.080;2022-12-11T05:37:04;0.40;99.90
27900;DHT22;15243;50.726;7.080;2022-12-11T05:39:31;0.50;99.90
27900;DHT22;15243;50.726;7.080;2022-12-11T05:41:58;0.30;99.90
27900;DHT22;15243;50.726;7.080;2022-12-11T05:44:25;0.30;99.90
27900;DHT22;15243;50.726;7.080;2022-12-11T05:46:52;0.40;99.90
27900;DHT22;15243;50.726;7.080;2022-12-11T05:49:19;0.40;99.90
27900;DHT22;15243;50.726;7.080;2022-12-11T05:51:54;0.40;99.90
27900;DHT22;15243;50.726;7.080;2022-12-11T05:54:21;0.40;99.90
27900;DHT22;15243;50.726;7.080;2022-12-11T05:56:48;0.40;99.90
27900;DHT22;15243;50.726;7.080;2022-12-11T05:59:16;0.50;99.90
27900;DHT22;15243;50.726;7.080;2022-12-11T06:01:45;0.40;99.90
27900;DHT22;15243;50.726;7.080;2022-12-11T06:04:12;0.50;99.90
27900;DHT22;15243;50.726;7.080;2022-12-11T06:06:39;0.50;99.90
27900;DHT22;15243;50.726;7.080;2022-12-11T06:09:07;0.40;99.90
27900;DHT22;15243;50.726;7.080;2022-12-11T06:11:34;0.40;99.90
27900;DHT22;15243;50.726;7.080;2022-12-11T06:14:02;0.40;99.90
27900;DHT22;15243;50.726;7.080;2022-12-11T06:16:29;0.40;99.90
27900;DHT22;15243;50.726;7.080;2022-12-11T06:18:57;0.50;99.90
27900;DHT22;15243;50.726;7.080;2022-12-11T06:21:27;0.50;99.90
27900;DHT22;15243;50.726;7.080;2022-12-11T06:23:55;0.40;99.90
27900;DHT22;15243;50.726;7.080;2022-12-11T06:26:23;0.50;99.90
27900;DHT22;15243;50.726;7.080;2022-12-11T06:28:52;0.40;99.90
27900;DHT22;15243;50.726;7.080;2022-12-11T06:31:20;0.40;99.90
27900;DHT22;15243;50.726;7.080;2022-12-11T06:33:47;0.50;99.90
27900;DHT22;15243;50.726;7.080;2022-12-11T06:36:17;0.40;99.90
27900;DHT22;15243;50.726;7.080;2022-12-11T06:38:44;0.40;99.90
27900;DHT22;15243;50.726;7.080;2022-12-11T06:41:11;0.40;99.90
27900;DHT22;15243;50.726;7.080;2022-12-11T06:43:40;0.40;99.90
27900;DHT22;15243;50.726;7.080;2022-12-11T06:46:11;0.40;99.90
27900;DHT22;15243;50.726;7.080;2022-12-11T06:48:39;0.40;99.90
27900;DHT22;15243;50.726;7.080;2022-12-11T06:51:16;0.40;99.90
27900;DHT22;15243;50.726;7.080;2022-12-11T06:53:44;0.40;99.90
27900;DHT22;15243;50.726;7.080;2022-12-11T06:56:13;0.40;99.90
27900;DHT22;15243;50.726;7.080;2022-12-11T06:58:41;0.40;99.90
27900;DHT22;15243;50.726;7.080;2022-12-11T07:01:23;0.30;99.90
27900;DHT22;15243;50.726;7.080;2022-12-11T07:03:57;0.30;99.90
27900;DHT22;15243;50.726;7.080;2022-12-11T07:06:26;0.40;99.90
27900;DHT22;15243;50.726;7.080;2022-12-11T07:08:54;0.40;99.90
27900;DHT22;15243;50.726;7.080;2022-12-11T07:11:21;0.40;99.90
27900;DHT22;15243;50.726;7.080;2022-12-11T07:13:48;0.40;99.90
27900;DHT22;15243;50.726;7.080;2022-12-11T07:16:17;0.30;99.90
27900;DHT22;15243;50.726;7.080;2022-12-11T07:18:48;0.30;99.90
27900;DHT22;15243;50.726;7.080;2022-12-11T07:21:16;0.30;99.90
27900;DHT22;15243;50.726;7.080;2022-12-11T07:23:43;0.30;99.90
27900;DHT22;15243;50.726;7.080;2022-12-11T07:26:13;0.30;99.90
27900;DHT22;15243;50.726;7.080;2022-12-11T07:28:41;0.20;99.90
27900;DHT22;15243;50.726;7.080;2022-12-11T07:31:10;0.30;99.90
27900;DHT22;15243;50.726;7.080;2022-12-11T07:33:37;0.30;99.90
27900;DHT22;15243;50.726;7.080;2022-12-11T07:36:06;0.20;99.90
27900;DHT22;15243;50.726;7.080;2022-12-11T07:38:33;0.20;99.90
27900;DHT22;15243;50.726;7.080;2022-12-11T07:41:04;0.30;99.90
27900;DHT22;15243;50.726;7.080;2022-12-11T07:43:32;0.30;99.90
27900;DHT22;15243;50.726;7.080;2022-12-11T07:46:05;0.40;99.90
27900;DHT22;15243;50.726;7.080;2022-12-11T07:48:35;0.30;99.90
27900;DHT22;15243;50.726;7.080;2022-12-11T07:53:42;0.40;99.90
27900;DHT22;15243;50.726;7.080;2022-12-11T07:56:10;0.30;99.90
27900;DHT22;15243;50.726;7.080;2022-12-11T07:58:37;0.30;99.90
27900;DHT22;15243;50.726;7.080;2022-12-11T08:01:31;0.30;99.90
27900;DHT22;15243;50.726;7.080;2022-12-11T08:04:02;0.40;99.90
27900;DHT22;15243;50.726;7.080;2022-12-11T08:06:31;0.40;99.90
27900;DHT22;15243;50.726;7.080;2022-12-11T08:09:00;0.40;99.90
27900;DHT22;15243;50.726;7.080;2022-12-11T08:11:29;0.30;99.90
27900;DHT22;15243;50.726;7.080;2022-12-11T08:13:57;0.30;99.90
27900;DHT22;15243;50.726;7.080;2022-12-11T08:16:25;0.30;99.90
27900;DHT22;15243;50.726;7.080;2022-12-11T08:18:52;0.40;99.90
27900;DHT22;15243;50.726;7.080;2022-12-11T08:21:22;0.50;99.90
27900;DHT22;15243;50.726;7.080;2022-12-11T08:23:50;0.40;99.90
27900;DHT22;15243;50.726;7.080;2022-12-11T08:26:26;0.50;99.90
27900;DHT22;15243;50.726;7.080;2022-12-11T08:28:54;0.30;99.90
27900;DHT22;15243;50.726;7.080;2022-12-11T08:31:21;0.30;99.90
27900;DHT22;15243;50.726;7.080;2022-12-11T08:33:49;0.30;99.90
27900;DHT22;15243;50.726;7.080;2022-12-11T08:36:18;0.40;99.90
27900;DHT22;15243;50.726;7.080;2022-12-11T08:38:46;0.30;99.90
27900;DHT22;15243;50.726;7.080;2022-12-11T08:41:24;0.50;99.90
27900;DHT22;15243;50.726;7.080;2022-12-11T08:44:00;0.60;99.90
27900;DHT22;15243;50.726;7.080;2022-12-11T08:46:31;0.60;99.90
27900;DHT22;15243;50.726;7.080;2022-12-11T08:48:58;0.60;99.90
27900;DHT22;15243;50.726;7.080;2022-12-11T08:51:27;0.60;99.90
27900;DHT22;15243;50.726;7.080;2022-12-11T08:53:56;0.60;99.90
27900;DHT22;15243;50.726;7.080;2022-12-11T08:56:23;0.60;99.90
27900;DHT22;15243;50.726;7.080;2022-12-11T08:58:51;0.70;99.90
27900;DHT22;15243;50.726;7.080;2022-12-11T09:01:20;0.50;99.90
27900;DHT22;15243;50.726;7.080;2022-12-11T09:03:49;0.50;99.90
27900;DHT22;15243;50.726;7.080;2022-12-11T09:06:18;0.50;99.90
27900;DHT22;15243;50.726;7.080;2022-12-11T09:08:47;0.60;99.90
27900;DHT22;15243;50.726;7.080;2022-12-11T09:11:23;0.50;99.90
27900;DHT22;15243;50.726;7.080;2022-12-11T09:13:52;0.70;99.90
27900;DHT22;15243;50.726;7.080;2022-12-11T09:16:21;0.70;99.90
27900;DHT22;15243;50.726;7.080;2022-12-11T09:18:50;0.80;99.90
27900;DHT22;15243;50.726;7.080;2022-12-11T09:21:19;0.90;99.90
27900;DHT22;15243;50.726;7.080;2022-12-11T09:23:47;0.90;99.90
27900;DHT22;15243;50.726;7.080;2022-12-11T09:26:16;0.90;99.90
27900;DHT22;15243;50.726;7.080;2022-12-11T09:28:43;0.80;99.90
27900;DHT22;15243;50.726;7.080;2022-12-11T09:31:18;0.90;99.90
27900;DHT22;15243;50.726;7.080;2022-12-11T09:33:45;0.90;99.90
27900;DHT22;15243;50.726;7.080;2022-12-11T09:36:13;0.80;99.90
27900;DHT22;15243;50.726;7.080;2022-12-11T09:38:40;0.90;99.90
27900;DHT22;15243;50.726;7.080;2022-12-11T09:43:52;1.10;99.90
27900;DHT22;15243;50.726;7.080;2022-12-11T09:46:20;0.90;99.90
27900;DHT22;15243;50.726;7.080;2022-12-11T09:48:50;1.00;99.90
27900;DHT22;15243;50.726;7.080;2022-12-11T09:51:45;1.10;99.90
27900;DHT22;15243;50.726;7.080;2022-12-11T09:54:14;1.10;99.90
27900;DHT22;15243;50.726;7.080;2022-12-11T09:56:46;1.00;99.90
27900;DHT22;15243;50.726;7.080;2022-12-11T09:59:28;1.20;99.90
27900;DHT22;15243;50.726;7.080;2022-12-11T10:02:02;1.20;99.90
27900;DHT22;15243;50.726;7.080;2022-12-11T10:07:18;1.10;99.90
27900;DHT22;15243;50.726;7.080;2022-12-11T10:10:15;1.10;99.90
27900;DHT22;15243;50.726;7.080;2022-12-11T10:13:01;1.00;99.90
27900;DHT22;15243;50.726;7.080;2022-12-11T10:16:00;1.00;99.90
27900;DHT22;15243;50.726;7.080;2022-12-11T10:18:30;1.20;99.90
27900;DHT22;15243;50.726;7.080;2022-12-11T10:21:00;1.20;99.90
27900;DHT22;15243;50.726;7.080;2022-12-11T10:23:33;1.20;99.90
27900;DHT22;15243;50.726;7.080;2022-12-11T10:26:08;1.30;99.90
27900;DHT22;15243;50.726;7.080;2022-12-11T10:28:36;1.40;99.90
27900;DHT22;15243;50.726;7.080;2022-12-11T10:31:37;1.40;99.90
27900;DHT22;15243;50.726;7.080;2022-12-11T10:34:13;1.40;99.90
27900;DHT22;15243;50.726;7.080;2022-12-11T10:36:41;1.50;99.90
27900;DHT22;15243;50.726;7.080;2022-12-11T10:39:20;1.50;99.90
27900;DHT22;15243;50.726;7.080;2022-12-11T10:41:52;1.40;99.90
27900;DHT22;15243;50.726;7.080;2022-12-11T10:44:25;1.40;99.90
27900;DHT22;15243;50.726;7.080;2022-12-11T10:49:42;1.50;99.90
27900;DHT22;15243;50.726;7.080;2022-12-11T10:52:12;1.60;99.90
27900;DHT22;15243;50.726;7.080;2022-12-11T10:54:46;1.60;99.90
27900;DHT22;15243;50.726;7.080;2022-12-11T10:57:35;1.70;99.90
27900;DHT22;15243;50.726;7.080;2022-12-11T11:00:07;1.70;99.90
27900;DHT22;15243;50.726;7.080;2022-12-11T11:02:38;1.80;99.90
27900;DHT22;15243;50.726;7.080;2022-12-11T11:05:12;1.60;99.90
27900;DHT22;15243;50.726;7.080;2022-12-11T11:07:39;1.80;99.90
27900;DHT22;15243;50.726;7.080;2022-12-11T11:12:41;2.00;99.90
27900;DHT22;15243;50.726;7.080;2022-12-11T11:15:14;1.80;99.90
27900;DHT22;15243;50.726;7.080;2022-12-11T11:18:26;1.90;99.90
27900;DHT22;15243;50.726;7.080;2022-12-11T11:22:11;2.00;99.90
27900;DHT22;15243;50.726;7.080;2022-12-11T11:24:54;2.30;99.90
27900;DHT22;15243;50.726;7.080;2022-12-11T11:27:43;2.00;99.90
27900;DHT22;15243;50.726;7.080;2022-12-11T11:30:38;2.00;99.90
27900;DHT22;15243;50.726;7.080;2022-12-11T11:33:20;2.30;99.90
27900;DHT22;15243;50.726;7.080;2022-12-11T11:35:53;2.20;99.90
27900;DHT22;15243;50.726;7.080;2022-12-11T11:38:44;2.20;99.90
27900;DHT22;15243;50.726;7.080;2022-12-11T11:41:20;1.90;99.90
27900;DHT22;15243;50.726;7.080;2022-12-11T11:43:56;1.80;99.90
27900;DHT22;15243;50.726;7.080;2022-12-11T11:51:45;2.40;99.90
27900;DHT22;15243;50.726;7.080;2022-12-11T11:54:30;2.60;99.90
27900;DHT22;15243;50.726;7.080;2022-12-11T11:57:04;2.70;99.90
27900;DHT22;15243;50.726;7.080;2022-12-11T11:59:45;2.60;99.90
27900;DHT22;15243;50.726;7.080;2022-12-11T12:02:16;2.50;99.90
27900;DHT22;15243;50.726;7.080;2022-12-11T12:04:45;2.60;99.90
27900;DHT22;15243;50.726;7.080;2022-12-11T12:07:36;2.70;99.90
27900;DHT22;15243;50.726;7.080;2022-12-11T12:13:04;2.30;99.90
27900;DHT22;15243;50.726;7.080;2022-12-11T12:15:59;2.20;99.90
27900;DHT22;15243;50.726;7.080;2022-12-11T12:21:25;2.60;99.90
27900;DHT22;15243;50.726;7.080;2022-12-11T12:24:10;2.40;99.90
27900;DHT22;15243;50.726;7.080;2022-12-11T12:26:43;2.30;99.90
27900;DHT22;15243;50.726;7.080;2022-12-11T12:32:15;2.30;99.90
27900;DHT22;15243;50.726;7.080;2022-12-11T12:38:05;2.40;99.90
27900;DHT22;15243;50.726;7.080;2022-12-11T12:40:34;2.30;99.90
27900;DHT22;15243;50.726;7.080;2022-12-11T12:43:45;2.30;99.90
27900;DHT22;15243;50.726;7.080;2022-12-11T12:48:36;2.40;99.90
27900;DHT22;15243;50.726;7.080;2022-12-11T12:51:03;2.30;99.90
27900;DHT22;15243;50.726;7.080;2022-12-11T12:53:33;2.30;99.90
27900;DHT22;15243;50.726;7.080;2022-12-11T12:56:02;2.30;99.90
27900;DHT22;15243;50.726;7.080;2022-12-11T12:58:39;2.30;99.90
27900;DHT22;15243;50.726;7.080;2022-12-11T13:06:37;2.60;99.90
27900;DHT22;15243;50.726;7.080;2022-12-11T13:09:25;2.50;99.90
27900;DHT22;15243;50.726;7.080;2022-12-11T13:11:55;2.40;99.90
27900;DHT22;15243;50.726;7.080;2022-12-11T13:14:28;2.30;99.90
27900;DHT22;15243;50.726;7.080;2022-12-11T13:19:45;2.50;99.90
27900;DHT22;15243;50.726;7.080;2022-12-11T13:27:35;2.70;99.90
27900;DHT22;15243;50.726;7.080;2022-12-11T13:30:06;2.70;99.90
27900;DHT22;15243;50.726;7.080;2022-12-11T13:32:34;2.50;99.90
27900;DHT22;15243;50.726;7.080;2022-12-11T13:35:04;2.50;99.90
27900;DHT22;15243;50.726;7.080;2022-12-11T13:37:39;2.30;99.90
27900;DHT22;15243;50.726;7.080;2022-12-11T13:40:21;2.20;99.90
27900;DHT22;15243;50.726;7.080;2022-12-11T13:42:53;2.20;99.90
27900;DHT22;15243;50.726;7.080;2022-12-11T13:45:26;2.10;99.90
27900;DHT22;15243;50.726;7.080;2022-12-11T13:47:56;2.10;99.90
27900;DHT22;15243;50.726;7.080;2022-12-11T13:50:30;2.00;99.90
27900;DHT22;15243;50.726;7.080;2022-12-11T13:52:59;1.90;99.90
27900;DHT22;15243;50.726;7.080;2022-12-11T13:55:28;2.00;99.90
27900;DHT22;15243;50.726;7.080;2022-12-11T13:57:56;2.00;99.90
27900;DHT22;15243;50.726;7.080;2022-12-11T14:00:28;2.00;99.90
27900;DHT22;15243;50.726;7.080;2022-12-11T14:03:03;2.00;99.90
27900;DHT22;15243;50.726;7.080;2022-12-11T14:05:33;1.90;99.90
27900;DHT22;15243;50.726;7.080;2022-12-11T14:08:05;1.90;99.90
27900;DHT22;15243;50.726;7.080;2022-12-11T14:10:35;1.80;99.90
27900;DHT22;15243;50.726;7.080;2022-12-11T14:13:18;1.70;99.90
27900;DHT22;15243;50.726;7.080;2022-12-11T14:15:47;1.70;99.90
27900;DHT22;15243;50.726;7.080;2022-12-11T14:18:21;1.60;99.90
27900;DHT22;15243;50.726;7.080;2022-12-11T14:21:03;1.60;99.90
27900;DHT22;15243;50.726;7.080;2022-12-11T14:23:35;1.50;99.90
27900;DHT22;15243;50.726;7.080;2022-12-11T14:28:48;1.50;99.90
27900;DHT22;15243;50.726;7.080;2022-12-11T14:31:22;1.50;99.90
27900;DHT22;15243;50.726;7.080;2022-12-11T14:34:18;1.60;99.90
27900;DHT22;15243;50.726;7.080;2022-12-11T14:36:47;1.50;99.90
27900;DHT22;15243;50.726;7.080;2022-12-11T14:40:06;1.50;99.90
27900;DHT22;15243;50.726;7.080;2022-12-11T14:43:11;1.50;99.90
27900;DHT22;15243;50.726;7.080;2022-12-11T14:45:43;1.50;99.90
27900;DHT22;15243;50.726;7.080;2022-12-11T14:48:18;1.50;99.90
27900;DHT22;15243;50.726;7.080;2022-12-11T14:50:52;1.60;99.90
27900;DHT22;15243;50.726;7.080;2022-12-11T14:53:27;1.70;99.90
27900;DHT22;15243;50.726;7.080;2022-12-11T14:56:00;1.60;99.90
27900;DHT22;15243;50.726;7.080;2022-12-11T14:58:28;1.60;99.90
27900;DHT22;15243;50.726;7.080;2022-12-11T15:01:18;1.50;99.90
27900;DHT22;15243;50.726;7.080;2022-12-11T15:03:46;1.50;99.90
27900;DHT22;15243;50.726;7.080;2022-12-11T15:06:31;1.50;99.90
27900;DHT22;15243;50.726;7.080;2022-12-11T15:12:11;1.40;99.90
27900;DHT22;15243;50.726;7.080;2022-12-11T15:14:53;1.40;99.90
27900;DHT22;15243;50.726;7.080;2022-12-11T15:17:22;1.40;99.90
27900;DHT22;15243;50.726;7.080;2022-12-11T15:19:53;1.50;99.90
27900;DHT22;15243;50.726;7.080;2022-12-11T15:22:22;1.60;99.90
27900;DHT22;15243;50.726;7.080;2022-12-11T15:24:53;1.50;99.90
27900;DHT22;15243;50.726;7.080;2022-12-11T15:27:33;1.50;99.90
27900;DHT22;15243;50.726;7.080;2022-12-11T15:33:20;1.60;99.90
27900;DHT22;15243;50.726;7.080;2022-12-11T15:36:03;1.50;99.90
27900;DHT22;15243;50.726;7.080;2022-12-11T15:38:35;1.40;99.90
27900;DHT22;15243;50.726;7.080;2022-12-11T15:41:03;1.40;99.90
27900;DHT22;15243;50.726;7.080;2022-12-11T15:43:34;1.30;99.90
27900;DHT22;15243;50.726;7.080;2022-12-11T15:46:03;1.30;99.90
27900;DHT22;15243;50.726;7.080;2022-12-11T15:48:30;1.30;99.90
27900;DHT22;15243;50.726;7.080;2022-12-11T15:50:57;1.20;99.90
27900;DHT22;15243;50.726;7.080;2022-12-11T15:53:24;1.20;99.90
27900;DHT22;15243;50.726;7.080;2022-12-11T15:55:55;1.20;99.90
27900;DHT22;15243;50.726;7.080;2022-12-11T15:58:32;1.20;99.90
27900;DHT22;15243;50.726;7.080;2022-12-11T16:01:09;1.20;99.90
27900;DHT22;15243;50.726;7.080;2022-12-11T16:04:00;1.20;99.90
27900;DHT22;15243;50.726;7.080;2022-12-11T16:06:36;1.30;99.90
27900;DHT22;15243;50.726;7.080;2022-12-11T16:09:18;1.40;99.90
27900;DHT22;15243;50.726;7.080;2022-12-11T16:11:48;1.30;99.90
27900;DHT22;15243;50.726;7.080;2022-12-11T16:14:16;1.30;99.90
27900;DHT22;15243;50.726;7.080;2022-12-11T16:16:55;1.30;99.90
27900;DHT22;15243;50.726;7.080;2022-12-11T16:19:34;1.30;99.90
27900;DHT22;15243;50.726;7.080;2022-12-11T16:22:06;1.30;99.90
27900;DHT22;15243;50.726;7.080;2022-12-11T16:24:51;1.20;99.90
27900;DHT22;15243;50.726;7.080;2022-12-11T16:27:22;1.20;99.90
27900;DHT22;15243;50.726;7.080;2022-12-11T16:29:51;1.10;99.90
27900;DHT22;15243;50.726;7.080;2022-12-11T16:32:23;1.10;99.90
27900;DHT22;15243;50.726;7.080;2022-12-11T16:34:57;1.20;99.90
27900;DHT22;15243;50.726;7.080;2022-12-11T16:37:31;1.20;99.90
27900;DHT22;15243;50.726;7.080;2022-12-11T16:40:01;1.20;99.90
27900;DHT22;15243;50.726;7.080;2022-12-11T16:42:31;1.20;99.90
27900;DHT22;15243;50.726;7.080;2022-12-11T16:45:24;1.00;99.90
27900;DHT22;15243;50.726;7.080;2022-12-11T16:48:07;1.10;99.90
27900;DHT22;15243;50.726;7.080;2022-12-11T16:50:43;1.10;99.90
27900;DHT22;15243;50.726;7.080;2022-12-11T16:53:19;1.20;99.90
27900;DHT22;15243;50.726;7.080;2022-12-11T16:55:49;1.20;99.90
27900;DHT22;15243;50.726;7.080;2022-12-11T16:58:22;1.10;99.90
27900;DHT22;15243;50.726;7.080;2022-12-11T17:00:56;1.00;99.90
27900;DHT22;15243;50.726;7.080;2022-12-11T17:03:31;1.00;99.90
27900;DHT22;15243;50.726;7.080;2022-12-11T17:06:21;1.00;99.90
27900;DHT22;15243;50.726;7.080;2022-12-11T17:09:04;1.00;99.90
27900;DHT22;15243;50.726;7.080;2022-12-11T17:11:43;1.00;99.90
27900;DHT22;15243;50.726;7.080;2022-12-11T17:14:24;1.00;99.90
27900;DHT22;15243;50.726;7.080;2022-12-11T17:17:05;1.00;99.90
27900;DHT22;15243;50.726;7.080;2022-12-11T17:19:39;1.00;99.90
27900;DHT22;15243;50.726;7.080;2022-12-11T17:22:10;1.00;99.90
27900;DHT22;15243;50.726;7.080;2022-12-11T17:24:37;1.00;99.90